sensor_id;sensor_type;location;lat;lon;timestamp;temperature;humidity
20891;DHT22;10605;52.968;8.844;2023-12-22T00:01:07;5.50;99.90
20891;DHT22;10605;52.968;8.844;2023-12-22T00:03:32;5.50;99.90
20891;DHT22;10605;52.968;8.844;2023-12-22T00:05:58;5.50;99.90
20891;DHT22;10605;52.968;8.844;2023-12-22T00:08:24;5.50;99.90
20891;DHT22;10605;52.968;8.844;2023-12-22T00:10:50;5.40;99.90
20891;DHT22;10605;52.968;8.844;2023-12-22T00:13:15;5.30;99.90
20891;DHT22;10605;52.968;8.844;2023-12-22T00:15:41;5.30;99.90
20891;DHT22;10605;52.968;8.844;2023-12-22T00:18:10;5.30;99.90
20891;DHT22;10605;52.968;8.844;2023-12-22T00:20:35;5.30;99.90
20891;DHT22;10605;52.968;8.844;2023-12-22T00:23:01;5.30;99.90
20891;DHT22;10605;52.968;8.844;2023-12-22T00:25:26;5.40;99.90
20891;DHT22;10605;52.968;8.844;2023-12-22T00:27:52;5.40;99.90
20891;DHT22;10605;52.968;8.844;2023-12-22T00:30:18;5.30;99.90
20891;DHT22;10605;52.968;8.844;2023-12-22T00:32:43;5.40;99.90
20891;DHT22;10605;52.968;8.844;2023-12-22T00:35:09;5.30;99.90
20891;DHT22;10605;52.968;8.844;2023-12-22T00:37:35;5.30;99.90
20891;DHT22;10605;52.968;8.844;2023-12-22T00:40:00;5.40;99.90
20891;DHT22;10605;52.968;8.844;2023-12-22T00:42:26;5.40;99.90
20891;DHT22;10605;52.968;8.844;2023-12-22T00:44:52;5.30;99.90
20891;DHT22;10605;52.968;8.844;2023-12-22T00:47:18;5.30;99.90
20891;DHT22;10605;52.968;8.844;2023-12-22T00:49:43;5.20;99.90
20891;DHT22;10605;52.968;8.844;2023-12-22T00:52:09;5.20;99.90
20891;DHT22;10605;52.968;8.844;2023-12-22T00:54:35;5.10;99.90
20891;DHT22;10605;52.968;8.844;2023-12-22T00:57:00;5.00;99.90
20891;DHT22;10605;52.968;8.844;2023-12-22T00:59:26;5.00;99.90
20891;DHT22;10605;52.968;8.844;2023-12-22T01:01:52;5.00;99.90
20891;DHT22;10605;52.968;8.844;2023-12-22T01:04:17;5.00;99.90
20891;DHT22;10605;52.968;8.844;2023-12-22T01:06:43;5.00;99.90
20891;DHT22;10605;52.968;8.844;2023-12-22T01:09:09;5.00;99.90
20891;DHT22;10605;52.968;8.844;2023-12-22T01:11:34;5.00;99.90
20891;DHT22;10605;52.968;8.844;2023-12-22T01:14:00;5.00;99.90
20891;DHT22;10605;52.968;8.844;2023-12-22T01:16:26;4.90;99.90
20891;DHT22;10605;52.968;8.844;2023-12-22T01:18:51;4.90;99.90
20891;DHT22;10605;52.968;8.844;2023-12-22T01:21:17;4.90;99.90
20891;DHT22;10605;52.968;8.844;2023-12-22T01:23:43;4.80;99.90
20891;DHT22;10605;52.968;8.844;2023-12-22T01:26:08;4.80;99.90
20891;DHT22;10605;52.968;8.844;2023-12-22T01:28:34;4.80;99.90
20891;DHT22;10605;52.968;8.844;2023-12-22T01:31:01;4.80;99.90
20891;DHT22;10605;52.968;8.844;2023-12-22T01:33:26;4.80;99.90
20891;DHT22;10605;52.968;8.844;2023-12-22T01:35:52;4.80;99.90
20891;DHT22;10605;52.968;8.844;2023-12-22T01:38:17;4.90;99.90
20891;DHT22;10605;52.968;8.844;2023-12-22T01:40:43;4.90;99.90
20891;DHT22;10605;52.968;8.844;2023-12-22T01:43:09;5.00;99.90
20891;DHT22;10605;52.968;8.844;2023-12-22T01:45:35;4.90;99.90
20891;DHT22;10605;52.968;8.844;2023-12-22T01:48:01;4.90;99.90
20891;DHT22;10605;52.968;8.844;2023-12-22T01:50:28;4.90;99.90
20891;DHT22;10605;52.968;8.844;2023-12-22T01:52:53;4.80;99.90
20891;DHT22;10605;52.968;8.844;2023-12-22T01:55:19;4.80;99.90
20891;DHT22;10605;52.968;8.844;2023-12-22T01:57:46;4.80;99.90
20891;DHT22;10605;52.968;8.844;2023-12-22T02:00:12;4.70;99.90
20891;DHT22;10605;52.968;8.844;2023-12-22T02:02:39;4.70;99.90
20891;DHT22;10605;52.968;8.844;2023-12-22T02:05:07;4.70;99.90
20891;DHT22;10605;52.968;8.844;2023-12-22T02:07:34;4.70;99.90
20891;DHT22;10605;52.968;8.844;2023-12-22T02:10:00;4.60;99.90
20891;DHT22;10605;52.968;8.844;2023-12-22T02:12:26;4.50;99.90
20891;DHT22;10605;52.968;8.844;2023-12-22T02:14:52;4.40;99.90
20891;DHT22;10605;52.968;8.844;2023-12-22T02:17:32;4.30;99.90
20891;DHT22;10605;52.968;8.844;2023-12-22T02:19:58;4.30;99.90
20891;DHT22;10605;52.968;8.844;2023-12-22T02:22:24;4.20;99.90
20891;DHT22;10605;52.968;8.844;2023-12-22T02:24:50;4.20;99.90
20891;DHT22;10605;52.968;8.844;2023-12-22T02:30:12;4.00;99.90
20891;DHT22;10605;52.968;8.844;2023-12-22T02:32:43;4.00;99.90
20891;DHT22;10605;52.968;8.844;2023-12-22T02:35:11;4.00;99.90
20891;DHT22;10605;52.968;8.844;2023-12-22T02:37:39;4.10;99.90
20891;DHT22;10605;52.968;8.844;2023-12-22T02:40:07;4.10;99.90
20891;DHT22;10605;52.968;8.844;2023-12-22T02:42:34;4.30;99.90
20891;DHT22;10605;52.968;8.844;2023-12-22T02:45:00;4.40;99.90
20891;DHT22;10605;52.968;8.844;2023-12-22T02:47:26;4.50;99.90
20891;DHT22;10605;52.968;8.844;2023-12-22T02:49:55;4.50;99.90
20891;DHT22;10605;52.968;8.844;2023-12-22T02:52:21;4.50;99.90
20891;DHT22;10605;52.968;8.844;2023-12-22T02:54:46;4.40;99.90
20891;DHT22;10605;52.968;8.844;2023-12-22T02:57:13;4.30;99.90
20891;DHT22;10605;52.968;8.844;2023-12-22T02:59:38;4.40;99.90
20891;DHT22;10605;52.968;8.844;2023-12-22T03:02:05;4.40;99.90
20891;DHT22;10605;52.968;8.844;2023-12-22T03:04:30;4.30;99.90
20891;DHT22;10605;52.968;8.844;2023-12-22T03:06:56;4.20;99.90
20891;DHT22;10605;52.968;8.844;2023-12-22T03:09:22;4.30;99.90
20891;DHT22;10605;52.968;8.844;2023-12-22T03:11:48;4.20;99.90
20891;DHT22;10605;52.968;8.844;2023-12-22T03:14:14;4.10;99.90
20891;DHT22;10605;52.968;8.844;2023-12-22T03:16:40;4.20;99.90
20891;DHT22;10605;52.968;8.844;2023-12-22T03:19:07;4.20;99.90
20891;DHT22;10605;52.968;8.844;2023-12-22T03:21:32;4.10;99.90
20891;DHT22;10605;52.968;8.844;2023-12-22T03:23:58;4.20;99.90
20891;DHT22;10605;52.968;8.844;2023-12-22T03:26:26;4.20;99.90
20891;DHT22;10605;52.968;8.844;2023-12-22T03:28:52;4.30;99.90
20891;DHT22;10605;52.968;8.844;2023-12-22T03:31:17;4.40;99.90
20891;DHT22;10605;52.968;8.844;2023-12-22T03:33:43;4.40;99.90
20891;DHT22;10605;52.968;8.844;2023-12-22T03:36:08;4.50;99.90
20891;DHT22;10605;52.968;8.844;2023-12-22T03:38:34;4.60;99.90
20891;DHT22;10605;52.968;8.844;2023-12-22T03:41:00;4.80;99.90
20891;DHT22;10605;52.968;8.844;2023-12-22T03:43:25;4.70;99.90
20891;DHT22;10605;52.968;8.844;2023-12-22T03:45:51;4.60;99.90
20891;DHT22;10605;52.968;8.844;2023-12-22T03:48:17;4.60;99.90
20891;DHT22;10605;52.968;8.844;2023-12-22T03:50:42;4.60;99.90
20891;DHT22;10605;52.968;8.844;2023-12-22T03:53:08;4.50;99.90
20891;DHT22;10605;52.968;8.844;2023-12-22T03:55:34;4.50;99.90
20891;DHT22;10605;52.968;8.844;2023-12-22T03:57:59;4.50;99.90
20891;DHT22;10605;52.968;8.844;2023-12-22T04:00:25;4.50;99.90
20891;DHT22;10605;52.968;8.844;2023-12-22T04:02:50;4.40;99.90
20891;DHT22;10605;52.968;8.844;2023-12-22T04:05:16;4.40;99.90
20891;DHT22;10605;52.968;8.844;2023-12-22T04:07:42;4.40;99.90
20891;DHT22;10605;52.968;8.844;2023-12-22T04:10:07;4.50;99.90
20891;DHT22;10605;52.968;8.844;2023-12-22T04:12:33;4.50;99.90
20891;DHT22;10605;52.968;8.844;2023-12-22T04:14:59;4.50;99.90
20891;DHT22;10605;52.968;8.844;2023-12-22T04:17:24;4.50;99.90
20891;DHT22;10605;52.968;8.844;2023-12-22T04:19:50;4.50;99.90
20891;DHT22;10605;52.968;8.844;2023-12-22T04:22:16;4.50;99.90
20891;DHT22;10605;52.968;8.844;2023-12-22T04:24:41;4.50;99.90
20891;DHT22;10605;52.968;8.844;2023-12-22T04:27:07;4.40;99.90
20891;DHT22;10605;52.968;8.844;2023-12-22T04:29:32;4.40;99.90
20891;DHT22;10605;52.968;8.844;2023-12-22T04:31:58;4.40;99.90
20891;DHT22;10605;52.968;8.844;2023-12-22T04:34:23;4.50;99.90
20891;DHT22;10605;52.968;8.844;2023-12-22T04:36:49;4.60;99.90
20891;DHT22;10605;52.968;8.844;2023-12-22T04:39:15;4.70;99.90
20891;DHT22;10605;52.968;8.844;2023-12-22T04:41:40;4.70;99.90
20891;DHT22;10605;52.968;8.844;2023-12-22T04:44:06;4.70;99.90
20891;DHT22;10605;52.968;8.844;2023-12-22T04:46:32;4.80;99.90
20891;DHT22;10605;52.968;8.844;2023-12-22T04:48:57;5.00;99.90
20891;DHT22;10605;52.968;8.844;2023-12-22T04:51:23;5.00;99.90
20891;DHT22;10605;52.968;8.844;2023-12-22T04:53:49;5.10;99.90
20891;DHT22;10605;52.968;8.844;2023-12-22T04:56:15;5.10;99.90
20891;DHT22;10605;52.968;8.844;2023-12-22T04:58:40;5.00;99.90
20891;DHT22;10605;52.968;8.844;2023-12-22T05:01:06;5.10;99.90
20891;DHT22;10605;52.968;8.844;2023-12-22T05:03:32;5.10;99.90
20891;DHT22;10605;52.968;8.844;2023-12-22T05:05:57;5.20;99.90
20891;DHT22;10605;52.968;8.844;2023-12-22T05:08:23;5.20;99.90
20891;DHT22;10605;52.968;8.844;2023-12-22T05:10:49;5.20;99.90
20891;DHT22;10605;52.968;8.844;2023-12-22T05:13:14;5.20;99.90
20891;DHT22;10605;52.968;8.844;2023-12-22T05:15:40;5.30;99.90
20891;DHT22;10605;52.968;8.844;2023-12-22T05:18:06;5.30;99.90
20891;DHT22;10605;52.968;8.844;2023-12-22T05:20:31;5.40;99.90
20891;DHT22;10605;52.968;8.844;2023-12-22T05:22:57;5.40;99.90
20891;DHT22;10605;52.968;8.844;2023-12-22T05:25:24;5.50;99.90
20891;DHT22;10605;52.968;8.844;2023-12-22T05:27:49;5.60;99.90
20891;DHT22;10605;52.968;8.844;2023-12-22T05:30:15;5.60;99.90
20891;DHT22;10605;52.968;8.844;2023-12-22T05:32:41;5.50;99.90
20891;DHT22;10605;52.968;8.844;2023-12-22T05:35:07;5.30;99.90
20891;DHT22;10605;52.968;8.844;2023-12-22T05:37:32;4.90;99.90
20891;DHT22;10605;52.968;8.844;2023-12-22T05:39:58;4.80;99.90
20891;DHT22;10605;52.968;8.844;2023-12-22T05:42:24;4.60;99.90
20891;DHT22;10605;52.968;8.844;2023-12-22T05:44:50;4.50;99.90
20891;DHT22;10605;52.968;8.844;2023-12-22T05:47:16;4.50;99.90
20891;DHT22;10605;52.968;8.844;2023-12-22T05:49:43;4.50;99.90
20891;DHT22;10605;52.968;8.844;2023-12-22T05:52:08;4.50;99.90
20891;DHT22;10605;52.968;8.844;2023-12-22T05:54:35;4.40;99.90
20891;DHT22;10605;52.968;8.844;2023-12-22T05:57:03;4.40;99.90
20891;DHT22;10605;52.968;8.844;2023-12-22T05:59:30;4.30;99.90
20891;DHT22;10605;52.968;8.844;2023-12-22T06:01:58;4.50;99.90
20891;DHT22;10605;52.968;8.844;2023-12-22T06:04:27;4.50;99.90
20891;DHT22;10605;52.968;8.844;2023-12-22T06:06:52;4.60;99.90
20891;DHT22;10605;52.968;8.844;2023-12-22T06:09:19;4.60;99.90
20891;DHT22;10605;52.968;8.844;2023-12-22T06:11:46;4.70;99.90
20891;DHT22;10605;52.968;8.844;2023-12-22T06:14:12;4.70;99.90
20891;DHT22;10605;52.968;8.844;2023-12-22T06:16:38;4.80;99.90
20891;DHT22;10605;52.968;8.844;2023-12-22T06:19:04;4.90;99.90
20891;DHT22;10605;52.968;8.844;2023-12-22T06:21:30;4.90;99.90
20891;DHT22;10605;52.968;8.844;2023-12-22T06:23:55;5.00;99.90
20891;DHT22;10605;52.968;8.844;2023-12-22T06:26:21;4.90;99.90
20891;DHT22;10605;52.968;8.844;2023-12-22T06:28:46;4.90;99.90
20891;DHT22;10605;52.968;8.844;2023-12-22T06:31:19;4.90;99.90
20891;DHT22;10605;52.968;8.844;2023-12-22T06:33:46;5.10;99.90
20891;DHT22;10605;52.968;8.844;2023-12-22T06:36:22;5.10;99.90
20891;DHT22;10605;52.968;8.844;2023-12-22T06:38:49;5.10;99.90
20891;DHT22;10605;52.968;8.844;2023-12-22T06:41:26;5.10;99.90
20891;DHT22;10605;52.968;8.844;2023-12-22T06:43:51;5.00;99.90
20891;DHT22;10605;52.968;8.844;2023-12-22T06:46:18;5.10;99.90
20891;DHT22;10605;52.968;8.844;2023-12-22T06:48:44;5.00;99.90
20891;DHT22;10605;52.968;8.844;2023-12-22T06:51:25;5.00;99.90
20891;DHT22;10605;52.968;8.844;2023-12-22T06:53:52;5.00;99.90
20891;DHT22;10605;52.968;8.844;2023-12-22T06:56:18;5.00;99.90
20891;DHT22;10605;52.968;8.844;2023-12-22T06:58:46;4.80;99.90
20891;DHT22;10605;52.968;8.844;2023-12-22T07:01:18;4.40;99.90
20891;DHT22;10605;52.968;8.844;2023-12-22T07:03:45;4.30;99.90
20891;DHT22;10605;52.968;8.844;2023-12-22T07:06:11;4.30;99.90
20891;DHT22;10605;52.968;8.844;2023-12-22T07:08:37;4.20;99.90
20891;DHT22;10605;52.968;8.844;2023-12-22T07:11:02;4.30;99.90
20891;DHT22;10605;52.968;8.844;2023-12-22T07:13:28;4.30;99.90
20891;DHT22;10605;52.968;8.844;2023-12-22T07:15:53;4.30;99.90
20891;DHT22;10605;52.968;8.844;2023-12-22T07:18:19;4.40;99.90
20891;DHT22;10605;52.968;8.844;2023-12-22T07:20:44;4.40;99.90
20891;DHT22;10605;52.968;8.844;2023-12-22T07:23:10;4.50;99.90
20891;DHT22;10605;52.968;8.844;2023-12-22T07:25:37;4.50;99.90
20891;DHT22;10605;52.968;8.844;2023-12-22T07:28:04;4.50;99.90
20891;DHT22;10605;52.968;8.844;2023-12-22T07:30:30;4.60;99.90
20891;DHT22;10605;52.968;8.844;2023-12-22T07:32:56;4.70;99.90
20891;DHT22;10605;52.968;8.844;2023-12-22T07:35:21;4.70;99.90
20891;DHT22;10605;52.968;8.844;2023-12-22T07:37:47;4.70;99.90
20891;DHT22;10605;52.968;8.844;2023-12-22T07:40:12;4.70;99.90
20891;DHT22;10605;52.968;8.844;2023-12-22T07:42:38;4.70;99.90
20891;DHT22;10605;52.968;8.844;2023-12-22T07:45:04;4.70;99.90
20891;DHT22;10605;52.968;8.844;2023-12-22T07:47:31;4.90;99.90
20891;DHT22;10605;52.968;8.844;2023-12-22T07:49:56;5.10;99.90
20891;DHT22;10605;52.968;8.844;2023-12-22T07:52:22;5.20;99.90
20891;DHT22;10605;52.968;8.844;2023-12-22T07:54:47;5.30;99.90
20891;DHT22;10605;52.968;8.844;2023-12-22T07:57:13;5.40;99.90
20891;DHT22;10605;52.968;8.844;2023-12-22T07:59:39;5.50;99.90
20891;DHT22;10605;52.968;8.844;2023-12-22T08:02:04;5.50;99.90
20891;DHT22;10605;52.968;8.844;2023-12-22T08:04:30;5.40;99.90
20891;DHT22;10605;52.968;8.844;2023-12-22T08:06:56;5.40;99.90
20891;DHT22;10605;52.968;8.844;2023-12-22T08:09:22;5.50;99.90
20891;DHT22;10605;52.968;8.844;2023-12-22T08:11:50;5.60;99.90
20891;DHT22;10605;52.968;8.844;2023-12-22T08:14:19;5.70;99.90
20891;DHT22;10605;52.968;8.844;2023-12-22T08:16:44;5.90;99.90
20891;DHT22;10605;52.968;8.844;2023-12-22T08:19:10;6.00;99.90
20891;DHT22;10605;52.968;8.844;2023-12-22T08:21:36;6.10;99.90
20891;DHT22;10605;52.968;8.844;2023-12-22T08:24:01;6.10;99.90
20891;DHT22;10605;52.968;8.844;2023-12-22T08:26:27;6.00;99.90
20891;DHT22;10605;52.968;8.844;2023-12-22T08:28:52;6.00;99.90
20891;DHT22;10605;52.968;8.844;2023-12-22T08:31:18;6.20;99.90
20891;DHT22;10605;52.968;8.844;2023-12-22T08:33:44;6.20;99.90
20891;DHT22;10605;52.968;8.844;2023-12-22T08:36:10;6.20;99.90
20891;DHT22;10605;52.968;8.844;2023-12-22T08:38:37;6.30;99.90
20891;DHT22;10605;52.968;8.844;2023-12-22T08:41:06;6.30;99.90
20891;DHT22;10605;52.968;8.844;2023-12-22T08:43:32;6.30;99.90
20891;DHT22;10605;52.968;8.844;2023-12-22T08:45:58;6.30;99.90
20891;DHT22;10605;52.968;8.844;2023-12-22T08:48:24;6.20;99.90
20891;DHT22;10605;52.968;8.844;2023-12-22T08:50:49;6.40;99.90
20891;DHT22;10605;52.968;8.844;2023-12-22T08:53:15;6.40;99.90
20891;DHT22;10605;52.968;8.844;2023-12-22T08:55:41;6.40;99.90
20891;DHT22;10605;52.968;8.844;2023-12-22T08:58:06;6.50;99.90
20891;DHT22;10605;52.968;8.844;2023-12-22T09:00:32;6.70;99.90
20891;DHT22;10605;52.968;8.844;2023-12-22T09:02:57;6.70;99.90
20891;DHT22;10605;52.968;8.844;2023-12-22T09:05:23;6.70;99.90
20891;DHT22;10605;52.968;8.844;2023-12-22T09:07:49;6.70;99.90
20891;DHT22;10605;52.968;8.844;2023-12-22T09:10:14;6.60;99.90
20891;DHT22;10605;52.968;8.844;2023-12-22T09:12:40;6.60;99.90
20891;DHT22;10605;52.968;8.844;2023-12-22T09:15:06;6.70;99.90
20891;DHT22;10605;52.968;8.844;2023-12-22T09:17:31;6.70;99.90
20891;DHT22;10605;52.968;8.844;2023-12-22T09:19:58;6.70;99.90
20891;DHT22;10605;52.968;8.844;2023-12-22T09:22:23;6.80;99.90
20891;DHT22;10605;52.968;8.844;2023-12-22T09:24:49;6.80;99.90
20891;DHT22;10605;52.968;8.844;2023-12-22T09:27:15;6.90;99.90
20891;DHT22;10605;52.968;8.844;2023-12-22T09:29:40;6.90;99.90
20891;DHT22;10605;52.968;8.844;2023-12-22T09:32:06;6.80;99.90
20891;DHT22;10605;52.968;8.844;2023-12-22T09:34:32;6.80;99.90
20891;DHT22;10605;52.968;8.844;2023-12-22T09:36:57;6.70;99.90
20891;DHT22;10605;52.968;8.844;2023-12-22T09:39:23;6.60;99.90
20891;DHT22;10605;52.968;8.844;2023-12-22T09:41:49;6.50;99.90
20891;DHT22;10605;52.968;8.844;2023-12-22T09:44:19;6.30;99.90
20891;DHT22;10605;52.968;8.844;2023-12-22T09:46:49;6.20;99.90
20891;DHT22;10605;52.968;8.844;2023-12-22T09:49:17;6.00;99.90
20891;DHT22;10605;52.968;8.844;2023-12-22T09:51:44;5.90;99.90
20891;DHT22;10605;52.968;8.844;2023-12-22T09:54:10;5.90;99.90
20891;DHT22;10605;52.968;8.844;2023-12-22T09:56:37;5.80;99.90
20891;DHT22;10605;52.968;8.844;2023-12-22T09:59:11;5.80;99.90
20891;DHT22;10605;52.968;8.844;2023-12-22T10:01:43;5.70;99.90
20891;DHT22;10605;52.968;8.844;2023-12-22T10:04:12;5.70;99.90
20891;DHT22;10605;52.968;8.844;2023-12-22T10:06:37;5.60;99.90
20891;DHT22;10605;52.968;8.844;2023-12-22T10:09:05;5.50;99.90
20891;DHT22;10605;52.968;8.844;2023-12-22T10:11:32;5.50;99.90
20891;DHT22;10605;52.968;8.844;2023-12-22T10:14:00;5.40;99.90
20891;DHT22;10605;52.968;8.844;2023-12-22T10:16:27;5.40;99.90
20891;DHT22;10605;52.968;8.844;2023-12-22T10:18:54;5.40;99.90
20891;DHT22;10605;52.968;8.844;2023-12-22T10:21:20;5.40;99.90
20891;DHT22;10605;52.968;8.844;2023-12-22T10:23:45;5.40;99.90
20891;DHT22;10605;52.968;8.844;2023-12-22T10:26:11;5.40;99.90
20891;DHT22;10605;52.968;8.844;2023-12-22T10:28:37;5.40;99.90
20891;DHT22;10605;52.968;8.844;2023-12-22T10:31:03;5.30;99.90
20891;DHT22;10605;52.968;8.844;2023-12-22T10:33:32;5.20;99.90
20891;DHT22;10605;52.968;8.844;2023-12-22T10:36:01;5.20;99.90
20891;DHT22;10605;52.968;8.844;2023-12-22T10:38:33;5.20;99.90
20891;DHT22;10605;52.968;8.844;2023-12-22T10:41:01;5.20;99.90
20891;DHT22;10605;52.968;8.844;2023-12-22T10:43:26;5.20;99.90
20891;DHT22;10605;52.968;8.844;2023-12-22T10:45:52;5.30;99.90
20891;DHT22;10605;52.968;8.844;2023-12-22T10:48:18;5.20;99.90
20891;DHT22;10605;52.968;8.844;2023-12-22T10:50:44;5.10;99.90
20891;DHT22;10605;52.968;8.844;2023-12-22T10:53:14;5.10;99.90
20891;DHT22;10605;52.968;8.844;2023-12-22T10:55:39;5.00;99.90
20891;DHT22;10605;52.968;8.844;2023-12-22T10:58:06;5.00;99.90
20891;DHT22;10605;52.968;8.844;2023-12-22T11:00:37;4.90;99.90
20891;DHT22;10605;52.968;8.844;2023-12-22T11:03:07;4.90;99.90
20891;DHT22;10605;52.968;8.844;2023-12-22T11:05:36;5.00;99.90
20891;DHT22;10605;52.968;8.844;2023-12-22T11:08:03;5.00;99.90
20891;DHT22;10605;52.968;8.844;2023-12-22T11:10:34;5.00;99.90
20891;DHT22;10605;52.968;8.844;2023-12-22T11:13:02;5.10;99.90
20891;DHT22;10605;52.968;8.844;2023-12-22T11:15:28;5.10;99.90
20891;DHT22;10605;52.968;8.844;2023-12-22T11:17:56;5.10;99.90
20891;DHT22;10605;52.968;8.844;2023-12-22T11:20:23;5.10;99.90
20891;DHT22;10605;52.968;8.844;2023-12-22T11:22:49;5.20;99.90
20891;DHT22;10605;52.968;8.844;2023-12-22T11:25:17;5.30;99.90
20891;DHT22;10605;52.968;8.844;2023-12-22T11:27:43;5.40;99.90
20891;DHT22;10605;52.968;8.844;2023-12-22T11:30:14;5.30;99.90
20891;DHT22;10605;52.968;8.844;2023-12-22T11:32:40;5.30;99.90
20891;DHT22;10605;52.968;8.844;2023-12-22T11:35:07;5.40;99.90
20891;DHT22;10605;52.968;8.844;2023-12-22T11:37:35;5.40;99.90
20891;DHT22;10605;52.968;8.844;2023-12-22T11:40:01;5.50;99.90
20891;DHT22;10605;52.968;8.844;2023-12-22T11:42:30;5.50;99.90
20891;DHT22;10605;52.968;8.844;2023-12-22T11:44:58;5.60;99.90
20891;DHT22;10605;52.968;8.844;2023-12-22T11:47:24;5.50;99.90
20891;DHT22;10605;52.968;8.844;2023-12-22T11:49:50;5.60;99.90
20891;DHT22;10605;52.968;8.844;2023-12-22T11:52:17;5.70;99.90
20891;DHT22;10605;52.968;8.844;2023-12-22T11:54:54;5.80;99.90
20891;DHT22;10605;52.968;8.844;2023-12-22T11:57:37;5.90;99.90
20891;DHT22;10605;52.968;8.844;2023-12-22T12:00:04;6.00;99.90
20891;DHT22;10605;52.968;8.844;2023-12-22T12:02:33;6.00;99.90
20891;DHT22;10605;52.968;8.844;2023-12-22T12:04:59;6.10;99.90
20891;DHT22;10605;52.968;8.844;2023-12-22T12:07:44;6.10;99.90
20891;DHT22;10605;52.968;8.844;2023-12-22T12:10:11;6.20;99.90
20891;DHT22;10605;52.968;8.844;2023-12-22T12:12:38;6.10;99.90
20891;DHT22;10605;52.968;8.844;2023-12-22T12:15:13;6.10;99.90
20891;DHT22;10605;52.968;8.844;2023-12-22T12:17:42;6.10;99.90
20891;DHT22;10605;52.968;8.844;2023-12-22T12:20:12;6.10;99.90
20891;DHT22;10605;52.968;8.844;2023-12-22T12:22:38;6.20;99.90
20891;DHT22;10605;52.968;8.844;2023-12-22T12:25:10;6.10;99.90
20891;DHT22;10605;52.968;8.844;2023-12-22T12:27:36;6.20;99.90
20891;DHT22;10605;52.968;8.844;2023-12-22T12:30:21;6.20;99.90
20891;DHT22;10605;52.968;8.844;2023-12-22T12:32:48;6.30;99.90
20891;DHT22;10605;52.968;8.844;2023-12-22T12:35:14;6.30;99.90
20891;DHT22;10605;52.968;8.844;2023-12-22T12:37:40;6.30;99.90
20891;DHT22;10605;52.968;8.844;2023-12-22T12:40:11;6.40;99.90
20891;DHT22;10605;52.968;8.844;2023-12-22T12:42:37;6.40;99.90
20891;DHT22;10605;52.968;8.844;2023-12-22T12:45:23;6.40;99.90
20891;DHT22;10605;52.968;8.844;2023-12-22T12:47:59;6.50;99.90
20891;DHT22;10605;52.968;8.844;2023-12-22T12:50:26;6.50;99.90
20891;DHT22;10605;52.968;8.844;2023-12-22T12:52:52;6.60;99.90
20891;DHT22;10605;52.968;8.844;2023-12-22T12:55:22;6.70;99.90
20891;DHT22;10605;52.968;8.844;2023-12-22T12:57:52;6.70;99.90
20891;DHT22;10605;52.968;8.844;2023-12-22T13:00:31;6.60;99.90
20891;DHT22;10605;52.968;8.844;2023-12-22T13:03:01;6.70;99.90
20891;DHT22;10605;52.968;8.844;2023-12-22T13:05:31;6.70;99.90
20891;DHT22;10605;52.968;8.844;2023-12-22T13:08:10;6.80;99.90
20891;DHT22;10605;52.968;8.844;2023-12-22T13:10:36;6.80;99.90
20891;DHT22;10605;52.968;8.844;2023-12-22T13:13:02;6.80;99.90
20891;DHT22;10605;52.968;8.844;2023-12-22T13:15:28;6.70;99.90
20891;DHT22;10605;52.968;8.844;2023-12-22T13:17:55;6.70;99.90
20891;DHT22;10605;52.968;8.844;2023-12-22T13:20:20;6.80;99.90
20891;DHT22;10605;52.968;8.844;2023-12-22T13:22:46;6.80;99.90
20891;DHT22;10605;52.968;8.844;2023-12-22T13:25:12;6.80;99.90
20891;DHT22;10605;52.968;8.844;2023-12-22T13:27:47;6.80;99.90
20891;DHT22;10605;52.968;8.844;2023-12-22T13:32:58;6.80;99.90
20891;DHT22;10605;52.968;8.844;2023-12-22T13:35:24;6.80;99.90
20891;DHT22;10605;52.968;8.844;2023-12-22T13:37:51;6.80;99.90
20891;DHT22;10605;52.968;8.844;2023-12-22T13:40:17;6.80;99.90
20891;DHT22;10605;52.968;8.844;2023-12-22T13:42:43;6.80;99.90
20891;DHT22;10605;52.968;8.844;2023-12-22T13:45:11;6.80;99.90
20891;DHT22;10605;52.968;8.844;2023-12-22T13:47:41;6.80;99.90
20891;DHT22;10605;52.968;8.844;2023-12-22T13:50:14;6.80;99.90
20891;DHT22;10605;52.968;8.844;2023-12-22T13:52:41;6.80;99.90
20891;DHT22;10605;52.968;8.844;2023-12-22T13:55:12;6.80;99.90
20891;DHT22;10605;52.968;8.844;2023-12-22T13:57:38;6.80;99.90
20891;DHT22;10605;52.968;8.844;2023-12-22T14:00:26;6.80;99.90
20891;DHT22;10605;52.968;8.844;2023-12-22T14:02:52;6.80;99.90
20891;DHT22;10605;52.968;8.844;2023-12-22T14:05:21;6.80;99.90
20891;DHT22;10605;52.968;8.844;2023-12-22T14:07:47;6.70;99.90
20891;DHT22;10605;52.968;8.844;2023-12-22T14:10:14;6.80;99.90
20891;DHT22;10605;52.968;8.844;2023-12-22T14:12:40;6.70;99.90
20891;DHT22;10605;52.968;8.844;2023-12-22T14:15:10;6.80;99.90
20891;DHT22;10605;52.968;8.844;2023-12-22T14:17:36;6.80;99.90
20891;DHT22;10605;52.968;8.844;2023-12-22T14:20:02;6.90;99.90
20891;DHT22;10605;52.968;8.844;2023-12-22T14:22:27;6.80;99.90
20891;DHT22;10605;52.968;8.844;2023-12-22T14:24:53;6.70;99.90
20891;DHT22;10605;52.968;8.844;2023-12-22T14:27:19;6.60;99.90
20891;DHT22;10605;52.968;8.844;2023-12-22T14:29:48;6.60;99.90
20891;DHT22;10605;52.968;8.844;2023-12-22T14:32:13;6.50;99.90
20891;DHT22;10605;52.968;8.844;2023-12-22T14:34:45;6.50;99.90
20891;DHT22;10605;52.968;8.844;2023-12-22T14:37:10;6.40;99.90
20891;DHT22;10605;52.968;8.844;2023-12-22T14:39:36;6.30;99.90
20891;DHT22;10605;52.968;8.844;2023-12-22T14:42:02;6.30;99.90
20891;DHT22;10605;52.968;8.844;2023-12-22T14:44:31;6.30;99.90
20891;DHT22;10605;52.968;8.844;2023-12-22T14:46:56;6.30;99.90
20891;DHT22;10605;52.968;8.844;2023-12-22T14:49:22;6.20;99.90
20891;DHT22;10605;52.968;8.844;2023-12-22T14:51:48;6.00;99.90
20891;DHT22;10605;52.968;8.844;2023-12-22T14:54:21;6.00;99.90
20891;DHT22;10605;52.968;8.844;2023-12-22T14:56:47;5.90;99.90
20891;DHT22;10605;52.968;8.844;2023-12-22T14:59:14;5.80;99.90
20891;DHT22;10605;52.968;8.844;2023-12-22T15:01:40;5.80;99.90
20891;DHT22;10605;52.968;8.844;2023-12-22T15:04:07;5.70;99.90
20891;DHT22;10605;52.968;8.844;2023-12-22T15:06:33;5.70;99.90
20891;DHT22;10605;52.968;8.844;2023-12-22T15:09:01;5.70;99.90
20891;DHT22;10605;52.968;8.844;2023-12-22T15:11:26;5.70;99.90
20891;DHT22;10605;52.968;8.844;2023-12-22T15:13:52;5.60;99.90
20891;DHT22;10605;52.968;8.844;2023-12-22T15:16:18;5.60;99.90
20891;DHT22;10605;52.968;8.844;2023-12-22T15:18:43;5.60;99.90
20891;DHT22;10605;52.968;8.844;2023-12-22T15:21:09;5.60;99.90
20891;DHT22;10605;52.968;8.844;2023-12-22T15:23:34;5.60;99.90
20891;DHT22;10605;52.968;8.844;2023-12-22T15:26:00;5.50;99.90
20891;DHT22;10605;52.968;8.844;2023-12-22T15:28:26;5.50;99.90
20891;DHT22;10605;52.968;8.844;2023-12-22T15:30:52;5.50;99.90
20891;DHT22;10605;52.968;8.844;2023-12-22T15:33:17;5.50;99.90
20891;DHT22;10605;52.968;8.844;2023-12-22T15:35:43;5.50;99.90
20891;DHT22;10605;52.968;8.844;2023-12-22T15:38:09;5.50;99.90
20891;DHT22;10605;52.968;8.844;2023-12-22T15:40:36;5.50;99.90
20891;DHT22;10605;52.968;8.844;2023-12-22T15:43:02;5.50;99.90
20891;DHT22;10605;52.968;8.844;2023-12-22T15:45:27;5.50;99.90
20891;DHT22;10605;52.968;8.844;2023-12-22T15:47:53;5.50;99.90